sensor_id;sensor_type;location;lat;lon;timestamp;P1;durP1;ratioP1;P2;durP2;ratioP2
22046;SDS011;11187;49.412;20.956;2023-02-28T00:00:03;34.83;;;20.27;;
22046;SDS011;11187;49.412;20.956;2023-02-28T00:02:43;25.38;;;18.83;;
22046;SDS011;11187;49.412;20.956;2023-02-28T00:05:31;22.05;;;18.23;;
22046;SDS011;11187;49.412;20.956;2023-02-28T00:08:07;25.08;;;16.85;;
22046;SDS011;11187;49.412;20.956;2023-02-28T00:11:05;23.13;;;17.00;;
22046;SDS011;11187;49.412;20.956;2023-02-28T00:13:41;20.23;;;16.75;;
22046;SDS011;11187;49.412;20.956;2023-02-28T00:16:36;18.05;;;15.77;;
22046;SDS011;11187;49.412;20.956;2023-02-28T00:19:09;25.00;;;17.73;;
22046;SDS011;11187;49.412;20.956;2023-02-28T00:22:03;21.02;;;17.65;;
22046;SDS011;11187;49.412;20.956;2023-02-28T00:24:57;23.00;;;16.33;;
22046;SDS011;11187;49.412;20.956;2023-02-28T00:27:30;23.90;;;17.65;;
22046;SDS011;11187;49.412;20.956;2023-02-28T00:30:18;21.17;;;17.88;;
22046;SDS011;11187;49.412;20.956;2023-02-28T00:32:52;20.23;;;18.05;;
22046;SDS011;11187;49.412;20.956;2023-02-28T00:35:39;22.38;;;17.55;;
22046;SDS011;11187;49.412;20.956;2023-02-28T00:38:13;23.13;;;19.13;;
22046;SDS011;11187;49.412;20.956;2023-02-28T00:41:00;25.30;;;17.75;;
22046;SDS011;11187;49.412;20.956;2023-02-28T00:43:38;22.58;;;18.55;;
22046;SDS011;11187;49.412;20.956;2023-02-28T00:46:25;24.00;;;18.25;;
22046;SDS011;11187;49.412;20.956;2023-02-28T00:48:58;23.55;;;18.45;;
22046;SDS011;11187;49.412;20.956;2023-02-28T00:51:45;29.98;;;18.90;;
22046;SDS011;11187;49.412;20.956;2023-02-28T00:54:18;23.75;;;19.17;;
22046;SDS011;11187;49.412;20.956;2023-02-28T00:57:13;23.02;;;18.88;;
22046;SDS011;11187;49.412;20.956;2023-02-28T00:59:46;19.83;;;17.40;;
22046;SDS011;11187;49.412;20.956;2023-02-28T01:02:34;22.85;;;18.15;;
22046;SDS011;11187;49.412;20.956;2023-02-28T01:05:07;23.30;;;18.15;;
22046;SDS011;11187;49.412;20.956;2023-02-28T01:07:54;21.35;;;19.10;;
22046;SDS011;11187;49.412;20.956;2023-02-28T01:10:27;22.15;;;19.15;;
22046;SDS011;11187;49.412;20.956;2023-02-28T01:13:16;24.00;;;17.92;;
22046;SDS011;11187;49.412;20.956;2023-02-28T01:15:50;25.92;;;16.20;;
22046;SDS011;11187;49.412;20.956;2023-02-28T01:18:38;20.77;;;18.33;;
22046;SDS011;11187;49.412;20.956;2023-02-28T01:21:13;23.70;;;18.63;;
22046;SDS011;11187;49.412;20.956;2023-02-28T01:24:02;23.20;;;18.02;;
22046;SDS011;11187;49.412;20.956;2023-02-28T01:26:36;22.73;;;18.15;;
22046;SDS011;11187;49.412;20.956;2023-02-28T01:29:30;25.58;;;19.23;;
22046;SDS011;11187;49.412;20.956;2023-02-28T01:32:24;22.60;;;17.08;;
22046;SDS011;11187;49.412;20.956;2023-02-28T01:35:18;23.95;;;19.17;;
22046;SDS011;11187;49.412;20.956;2023-02-28T01:38:14;20.38;;;17.77;;
22046;SDS011;11187;49.412;20.956;2023-02-28T01:40:49;26.75;;;18.75;;
22046;SDS011;11187;49.412;20.956;2023-02-28T01:46:15;28.42;;;20.15;;
22046;SDS011;11187;49.412;20.956;2023-02-28T01:49:13;24.95;;;17.83;;
22046;SDS011;11187;49.412;20.956;2023-02-28T01:51:50;28.25;;;19.10;;
22046;SDS011;11187;49.412;20.956;2023-02-28T01:54:42;31.38;;;20.30;;
22046;SDS011;11187;49.412;20.956;2023-02-28T01:57:16;27.45;;;19.60;;
22046;SDS011;11187;49.412;20.956;2023-02-28T02:00:10;20.58;;;18.35;;
22046;SDS011;11187;49.412;20.956;2023-02-28T02:02:48;25.52;;;18.88;;
22046;SDS011;11187;49.412;20.956;2023-02-28T02:05:40;23.67;;;16.80;;
22046;SDS011;11187;49.412;20.956;2023-02-28T02:08:19;22.00;;;18.40;;
22046;SDS011;11187;49.412;20.956;2023-02-28T02:11:09;23.60;;;18.08;;
22046;SDS011;11187;49.412;20.956;2023-02-28T02:14:21;22.42;;;19.63;;
22046;SDS011;11187;49.412;20.956;2023-02-28T02:33:02;21.10;;;18.27;;
22046;SDS011;11187;49.412;20.956;2023-02-28T02:39:34;22.55;;;15.88;;
22046;SDS011;11187;49.412;20.956;2023-02-28T02:43:08;23.30;;;17.33;;
22046;SDS011;11187;49.412;20.956;2023-02-28T02:45:44;21.02;;;18.95;;
22046;SDS011;11187;49.412;20.956;2023-02-28T02:48:33;28.00;;;19.45;;
22046;SDS011;11187;49.412;20.956;2023-02-28T02:51:16;21.63;;;18.92;;
22046;SDS011;11187;49.412;20.956;2023-02-28T02:54:21;21.50;;;17.27;;
22046;SDS011;11187;49.412;20.956;2023-02-28T02:57:06;26.23;;;18.63;;
22046;SDS011;11187;49.412;20.956;2023-02-28T03:00:05;27.52;;;19.08;;
22046;SDS011;11187;49.412;20.956;2023-02-28T03:03:00;22.52;;;18.38;;
22046;SDS011;11187;49.412;20.956;2023-02-28T03:05:36;22.50;;;16.80;;
22046;SDS011;11187;49.412;20.956;2023-02-28T03:08:30;20.58;;;17.98;;
22046;SDS011;11187;49.412;20.956;2023-02-28T03:11:11;22.08;;;17.42;;
22046;SDS011;11187;49.412;20.956;2023-02-28T03:22:50;17.00;;;15.45;;
22046;SDS011;11187;49.412;20.956;2023-02-28T03:29:02;18.60;;;16.15;;
22046;SDS011;11187;49.412;20.956;2023-02-28T03:32:03;20.40;;;17.65;;
22046;SDS011;11187;49.412;20.956;2023-02-28T03:35:03;20.83;;;18.40;;
22046;SDS011;11187;49.412;20.956;2023-02-28T03:37:42;18.95;;;17.17;;
22046;SDS011;11187;49.412;20.956;2023-02-28T03:40:32;20.98;;;17.10;;
22046;SDS011;11187;49.412;20.956;2023-02-28T03:43:09;19.23;;;16.77;;
22046;SDS011;11187;49.412;20.956;2023-02-28T03:46:01;31.85;;;20.48;;
22046;SDS011;11187;49.412;20.956;2023-02-28T03:48:47;25.17;;;20.30;;
22046;SDS011;11187;49.412;20.956;2023-02-28T03:51:46;25.70;;;19.13;;
22046;SDS011;11187;49.412;20.956;2023-02-28T03:54:48;20.98;;;16.50;;
22046;SDS011;11187;49.412;20.956;2023-02-28T03:58:09;21.70;;;19.10;;
22046;SDS011;11187;49.412;20.956;2023-02-28T04:00:38;26.15;;;18.55;;
22046;SDS011;11187;49.412;20.956;2023-02-28T04:03:16;21.63;;;18.10;;
22046;SDS011;11187;49.412;20.956;2023-02-28T04:06:03;19.83;;;17.73;;
22046;SDS011;11187;49.412;20.956;2023-02-28T04:08:39;18.98;;;16.02;;
22046;SDS011;11187;49.412;20.956;2023-02-28T04:11:37;18.30;;;16.42;;
22046;SDS011;11187;49.412;20.956;2023-02-28T04:14:14;21.58;;;16.75;;
22046;SDS011;11187;49.412;20.956;2023-02-28T04:17:08;18.63;;;16.70;;
22046;SDS011;11187;49.412;20.956;2023-02-28T04:20:02;23.27;;;17.27;;
22046;SDS011;11187;49.412;20.956;2023-02-28T04:22:49;19.45;;;17.45;;
22046;SDS011;11187;49.412;20.956;2023-02-28T04:25:43;22.77;;;18.33;;
22046;SDS011;11187;49.412;20.956;2023-02-28T04:28:37;25.55;;;22.75;;
22046;SDS011;11187;49.412;20.956;2023-02-28T04:31:10;22.50;;;17.60;;
22046;SDS011;11187;49.412;20.956;2023-02-28T04:33:57;19.77;;;17.48;;
22046;SDS011;11187;49.412;20.956;2023-02-28T04:36:30;20.90;;;16.58;;
22046;SDS011;11187;49.412;20.956;2023-02-28T04:39:17;18.27;;;16.38;;
22046;SDS011;11187;49.412;20.956;2023-02-28T04:41:50;17.77;;;15.82;;
22046;SDS011;11187;49.412;20.956;2023-02-28T04:44:44;18.30;;;16.52;;
22046;SDS011;11187;49.412;20.956;2023-02-28T04:47:38;19.50;;;16.13;;
22046;SDS011;11187;49.412;20.956;2023-02-28T04:50:11;18.58;;;16.45;;
22046;SDS011;11187;49.412;20.956;2023-02-28T04:52:58;19.45;;;15.50;;
22046;SDS011;11187;49.412;20.956;2023-02-28T04:55:31;22.58;;;16.67;;
22046;SDS011;11187;49.412;20.956;2023-02-28T04:58:26;25.88;;;16.50;;
22046;SDS011;11187;49.412;20.956;2023-02-28T05:01:01;17.95;;;16.10;;
22046;SDS011;11187;49.412;20.956;2023-02-28T05:03:54;19.08;;;17.08;;
22046;SDS011;11187;49.412;20.956;2023-02-28T05:06:30;18.92;;;17.23;;
22046;SDS011;11187;49.412;20.956;2023-02-28T05:09:18;20.17;;;16.65;;
22046;SDS011;11187;49.412;20.956;2023-02-28T05:11:51;19.42;;;14.38;;
22046;SDS011;11187;49.412;20.956;2023-02-28T05:14:38;20.33;;;15.85;;
22046;SDS011;11187;49.412;20.956;2023-02-28T05:17:11;18.00;;;14.23;;
22046;SDS011;11187;49.412;20.956;2023-02-28T05:19:58;21.83;;;15.38;;
22046;SDS011;11187;49.412;20.956;2023-02-28T05:22:41;27.35;;;18.20;;
22046;SDS011;11187;49.412;20.956;2023-02-28T05:25:28;33.85;;;18.85;;
22046;SDS011;11187;49.412;20.956;2023-02-28T05:28:02;23.73;;;17.15;;
22046;SDS011;11187;49.412;20.956;2023-02-28T05:30:48;24.48;;;16.00;;
22046;SDS011;11187;49.412;20.956;2023-02-28T05:33:21;18.77;;;15.57;;
22046;SDS011;11187;49.412;20.956;2023-02-28T05:36:15;26.20;;;17.20;;
22046;SDS011;11187;49.412;20.956;2023-02-28T05:38:49;22.83;;;16.58;;
22046;SDS011;11187;49.412;20.956;2023-02-28T05:41:38;24.80;;;18.80;;
22046;SDS011;11187;49.412;20.956;2023-02-28T05:44:12;20.92;;;15.75;;
22046;SDS011;11187;49.412;20.956;2023-02-28T05:46:59;21.75;;;16.92;;
22046;SDS011;11187;49.412;20.956;2023-02-28T05:49:32;21.98;;;16.50;;
22046;SDS011;11187;49.412;20.956;2023-02-28T05:52:26;20.02;;;17.92;;
22046;SDS011;11187;49.412;20.956;2023-02-28T05:55:14;23.42;;;17.42;;
22046;SDS011;11187;49.412;20.956;2023-02-28T05:57:54;25.33;;;19.08;;
22046;SDS011;11187;49.412;20.956;2023-02-28T06:00:34;20.67;;;17.00;;
22046;SDS011;11187;49.412;20.956;2023-02-28T06:03:14;26.20;;;17.67;;
22046;SDS011;11187;49.412;20.956;2023-02-28T06:05:47;21.25;;;16.08;;
22046;SDS011;11187;49.412;20.956;2023-02-28T06:08:41;22.55;;;16.60;;
22046;SDS011;11187;49.412;20.956;2023-02-28T06:11:35;28.52;;;18.10;;
22046;SDS011;11187;49.412;20.956;2023-02-28T06:14:15;27.90;;;18.83;;
22046;SDS011;11187;49.412;20.956;2023-02-28T06:17:10;21.30;;;16.92;;
22046;SDS011;11187;49.412;20.956;2023-02-28T06:19:43;23.40;;;18.45;;
22046;SDS011;11187;49.412;20.956;2023-02-28T06:22:30;32.50;;;19.55;;
22046;SDS011;11187;49.412;20.956;2023-02-28T06:25:04;35.58;;;22.02;;
22046;SDS011;11187;49.412;20.956;2023-02-28T06:27:52;39.20;;;22.27;;
22046;SDS011;11187;49.412;20.956;2023-02-28T06:30:26;29.83;;;21.88;;
22046;SDS011;11187;49.412;20.956;2023-02-28T06:33:13;33.58;;;21.52;;
22046;SDS011;11187;49.412;20.956;2023-02-28T06:35:47;25.33;;;19.77;;
22046;SDS011;11187;49.412;20.956;2023-02-28T06:38:37;29.48;;;20.73;;
22046;SDS011;11187;49.412;20.956;2023-02-28T06:41:10;34.80;;;20.33;;
22046;SDS011;11187;49.412;20.956;2023-02-28T06:43:57;28.33;;;18.85;;
22046;SDS011;11187;49.412;20.956;2023-02-28T06:46:31;25.27;;;17.25;;
22046;SDS011;11187;49.412;20.956;2023-02-28T06:49:18;15.40;;;13.85;;
22046;SDS011;11187;49.412;20.956;2023-02-28T06:51:51;16.92;;;14.27;;
22046;SDS011;11187;49.412;20.956;2023-02-28T06:54:38;22.13;;;17.02;;
22046;SDS011;11187;49.412;20.956;2023-02-28T06:57:11;18.45;;;16.48;;
22046;SDS011;11187;49.412;20.956;2023-02-28T07:00:02;13.88;;;12.68;;
22046;SDS011;11187;49.412;20.956;2023-02-28T07:02:44;14.07;;;12.80;;
22046;SDS011;11187;49.412;20.956;2023-02-28T07:05:36;14.82;;;13.35;;
22046;SDS011;11187;49.412;20.956;2023-02-28T07:08:11;25.55;;;13.10;;
22046;SDS011;11187;49.412;20.956;2023-02-28T07:11:04;12.43;;;11.32;;
22046;SDS011;11187;49.412;20.956;2023-02-28T07:13:58;12.23;;;11.00;;
22046;SDS011;11187;49.412;20.956;2023-02-28T07:16:31;14.73;;;12.23;;
22046;SDS011;11187;49.412;20.956;2023-02-28T07:19:18;14.48;;;12.45;;
22046;SDS011;11187;49.412;20.956;2023-02-28T07:21:51;12.50;;;11.20;;
22046;SDS011;11187;49.412;20.956;2023-02-28T07:24:38;13.20;;;11.77;;
22046;SDS011;11187;49.412;20.956;2023-02-28T07:27:11;12.63;;;11.43;;
22046;SDS011;11187;49.412;20.956;2023-02-28T07:30:03;13.23;;;11.40;;
22046;SDS011;11187;49.412;20.956;2023-02-28T07:32:37;14.15;;;11.38;;
22046;SDS011;11187;49.412;20.956;2023-02-28T07:35:24;12.55;;;11.25;;
22046;SDS011;11187;49.412;20.956;2023-02-28T07:37:58;13.35;;;11.95;;
22046;SDS011;11187;49.412;20.956;2023-02-28T07:40:47;13.40;;;10.82;;
22046;SDS011;11187;49.412;20.956;2023-02-28T07:43:20;14.75;;;13.23;;
22046;SDS011;11187;49.412;20.956;2023-02-28T07:46:08;14.18;;;11.85;;
22046;SDS011;11187;49.412;20.956;2023-02-28T07:48:44;14.88;;;13.35;;
22046;SDS011;11187;49.412;20.956;2023-02-28T07:51:31;14.55;;;12.48;;
22046;SDS011;11187;49.412;20.956;2023-02-28T07:54:04;15.82;;;10.85;;
22046;SDS011;11187;49.412;20.956;2023-02-28T07:56:58;14.77;;;11.98;;
22046;SDS011;11187;49.412;20.956;2023-02-28T07:59:52;15.52;;;13.82;;
22046;SDS011;11187;49.412;20.956;2023-02-28T08:02:46;14.02;;;11.80;;
22046;SDS011;11187;49.412;20.956;2023-02-28T08:05:40;12.73;;;11.20;;
22046;SDS011;11187;49.412;20.956;2023-02-28T08:08:14;15.50;;;12.57;;
22046;SDS011;11187;49.412;20.956;2023-02-28T08:11:08;14.57;;;12.10;;
22046;SDS011;11187;49.412;20.956;2023-02-28T08:14:02;12.30;;;11.02;;
22046;SDS011;11187;49.412;20.956;2023-02-28T08:16:35;13.65;;;11.38;;
22046;SDS011;11187;49.412;20.956;2023-02-28T08:19:22;14.85;;;11.85;;
22046;SDS011;11187;49.412;20.956;2023-02-28T08:21:55;17.77;;;13.10;;
22046;SDS011;11187;49.412;20.956;2023-02-28T08:24:50;19.98;;;15.48;;
22046;SDS011;11187;49.412;20.956;2023-02-28T08:27:23;17.10;;;15.30;;
22046;SDS011;11187;49.412;20.956;2023-02-28T08:30:17;17.13;;;15.40;;
22046;SDS011;11187;49.412;20.956;2023-02-28T08:33:11;17.63;;;14.40;;
22046;SDS011;11187;49.412;20.956;2023-02-28T08:36:06;16.67;;;15.07;;
22046;SDS011;11187;49.412;20.956;2023-02-28T08:38:40;17.55;;;15.75;;
22046;SDS011;11187;49.412;20.956;2023-02-28T08:41:26;17.55;;;15.20;;
22046;SDS011;11187;49.412;20.956;2023-02-28T08:43:59;17.50;;;14.05;;
22046;SDS011;11187;49.412;20.956;2023-02-28T08:46:46;15.90;;;14.45;;
22046;SDS011;11187;49.412;20.956;2023-02-28T08:49:19;17.48;;;15.48;;
22046;SDS011;11187;49.412;20.956;2023-02-28T08:52:06;16.52;;;14.77;;
22046;SDS011;11187;49.412;20.956;2023-02-28T08:54:40;16.35;;;14.10;;
22046;SDS011;11187;49.412;20.956;2023-02-28T08:57:26;16.63;;;14.88;;
22046;SDS011;11187;49.412;20.956;2023-02-28T08:59:59;17.00;;;15.20;;
22046;SDS011;11187;49.412;20.956;2023-02-28T09:02:54;18.42;;;16.50;;
22046;SDS011;11187;49.412;20.956;2023-02-28T09:05:27;17.90;;;15.98;;
22046;SDS011;11187;49.412;20.956;2023-02-28T09:08:22;20.33;;;15.23;;
22046;SDS011;11187;49.412;20.956;2023-02-28T09:10:56;20.08;;;15.73;;
22046;SDS011;11187;49.412;20.956;2023-02-28T09:13:50;16.40;;;14.77;;
22046;SDS011;11187;49.412;20.956;2023-02-28T09:16:45;16.10;;;14.38;;
22046;SDS011;11187;49.412;20.956;2023-02-28T09:19:20;18.10;;;16.08;;
22046;SDS011;11187;49.412;20.956;2023-02-28T09:22:07;18.92;;;15.48;;
22046;SDS011;11187;49.412;20.956;2023-02-28T09:24:40;18.15;;;15.02;;
22046;SDS011;11187;49.412;20.956;2023-02-28T09:27:34;19.45;;;16.63;;
22046;SDS011;11187;49.412;20.956;2023-02-28T09:30:28;20.15;;;16.05;;
22046;SDS011;11187;49.412;20.956;2023-02-28T09:33:03;18.33;;;14.02;;
22046;SDS011;11187;49.412;20.956;2023-02-28T09:35:49;15.75;;;14.07;;
22046;SDS011;11187;49.412;20.956;2023-02-28T09:38:23;18.80;;;16.27;;
22046;SDS011;11187;49.412;20.956;2023-02-28T09:41:19;17.80;;;16.05;;
22046;SDS011;11187;49.412;20.956;2023-02-28T09:43:55;21.67;;;17.33;;
22046;SDS011;11187;49.412;20.956;2023-02-28T09:46:44;17.70;;;16.05;;
22046;SDS011;11187;49.412;20.956;2023-02-28T09:49:22;18.17;;;15.73;;
22046;SDS011;11187;49.412;20.956;2023-02-28T09:52:19;20.95;;;18.75;;
22046;SDS011;11187;49.412;20.956;2023-02-28T09:58:32;17.02;;;15.25;;
22046;SDS011;11187;49.412;20.956;2023-02-28T10:01:34;14.85;;;13.30;;
22046;SDS011;11187;49.412;20.956;2023-02-28T10:04:22;18.67;;;16.05;;
22046;SDS011;11187;49.412;20.956;2023-02-28T10:10:48;18.48;;;14.70;;
22046;SDS011;11187;49.412;20.956;2023-02-28T10:14:20;17.42;;;13.70;;
22046;SDS011;11187;49.412;20.956;2023-02-28T10:17:13;19.23;;;15.23;;
22046;SDS011;11187;49.412;20.956;2023-02-28T10:19:58;17.38;;;15.55;;
22046;SDS011;11187;49.412;20.956;2023-02-28T10:23:02;20.27;;;15.82;;
22046;SDS011;11187;49.412;20.956;2023-02-28T10:25:42;16.38;;;14.63;;
22046;SDS011;11187;49.412;20.956;2023-02-28T10:28:35;17.40;;;15.52;;
22046;SDS011;11187;49.412;20.956;2023-02-28T10:31:14;19.73;;;14.90;;
22046;SDS011;11187;49.412;20.956;2023-02-28T10:34:05;17.13;;;15.30;;
22046;SDS011;11187;49.412;20.956;2023-02-28T10:36:39;19.70;;;15.65;;
22046;SDS011;11187;49.412;20.956;2023-02-28T10:42:25;15.27;;;13.73;;
22046;SDS011;11187;49.412;20.956;2023-02-28T10:48:02;16.13;;;14.07;;
22046;SDS011;11187;49.412;20.956;2023-02-28T10:50:42;15.32;;;13.63;;
22046;SDS011;11187;49.412;20.956;2023-02-28T10:53:51;17.20;;;13.60;;
22046;SDS011;11187;49.412;20.956;2023-02-28T10:56:59;15.40;;;13.88;;
22046;SDS011;11187;49.412;20.956;2023-02-28T10:59:39;16.00;;;14.30;;
22046;SDS011;11187;49.412;20.956;2023-02-28T11:02:34;17.98;;;16.17;;
22046;SDS011;11187;49.412;20.956;2023-02-28T11:05:52;16.33;;;14.43;;
22046;SDS011;11187;49.412;20.956;2023-02-28T11:08:28;18.42;;;16.25;;
22046;SDS011;11187;49.412;20.956;2023-02-28T11:11:24;17.48;;;15.68;;
22046;SDS011;11187;49.412;20.956;2023-02-28T11:14:05;17.98;;;15.88;;
22046;SDS011;11187;49.412;20.956;2023-02-28T11:16:52;19.85;;;14.70;;
22046;SDS011;11187;49.412;20.956;2023-02-28T11:19:28;16.17;;;14.13;;
22046;SDS011;11187;49.412;20.956;2023-02-28T11:22:27;15.50;;;13.30;;
22046;SDS011;11187;49.412;20.956;2023-02-28T11:25:12;19.17;;;16.33;;
22046;SDS011;11187;49.412;20.956;2023-02-28T11:28:31;16.75;;;14.90;;
22046;SDS011;11187;49.412;20.956;2023-02-28T11:31:26;17.15;;;15.02;;
22046;SDS011;11187;49.412;20.956;2023-02-28T11:34:07;19.75;;;17.85;;
22046;SDS011;11187;49.412;20.956;2023-02-28T11:37:18;20.80;;;18.70;;
22046;SDS011;11187;49.412;20.956;2023-02-28T11:39:51;19.75;;;16.77;;
22046;SDS011;11187;49.412;20.956;2023-02-28T11:48:23;22.20;;;18.90;;
22046;SDS011;11187;49.412;20.956;2023-02-28T11:51:21;22.20;;;17.63;;
22046;SDS011;11187;49.412;20.956;2023-02-28T11:54:20;18.02;;;16.08;;
22046;SDS011;11187;49.412;20.956;2023-02-28T12:06:40;25.38;;;19.23;;
22046;SDS011;11187;49.412;20.956;2023-02-28T12:09:46;20.98;;;18.00;;
22046;SDS011;11187;49.412;20.956;2023-02-28T12:13:01;19.27;;;17.25;;
22046;SDS011;11187;49.412;20.956;2023-02-28T12:19:26;22.40;;;19.73;;
22046;SDS011;11187;49.412;20.956;2023-02-28T12:26:15;18.70;;;16.90;;
22046;SDS011;11187;49.412;20.956;2023-02-28T12:32:32;23.95;;;18.30;;
22046;SDS011;11187;49.412;20.956;2023-02-28T12:35:34;22.10;;;19.15;;
22046;SDS011;11187;49.412;20.956;2023-02-28T12:38:36;22.33;;;19.55;;
22046;SDS011;11187;49.412;20.956;2023-02-28T12:41:18;21.88;;;19.38;;
22046;SDS011;11187;49.412;20.956;2023-02-28T12:44:17;22.00;;;18.92;;
22046;SDS011;11187;49.412;20.956;2023-02-28T12:47:00;20.48;;;18.33;;
22046;SDS011;11187;49.412;20.956;2023-02-28T12:49:56;20.58;;;18.48;;
22046;SDS011;11187;49.412;20.956;2023-02-28T12:58:45;22.02;;;18.88;;
22046;SDS011;11187;49.412;20.956;2023-02-28T13:10:37;20.52;;;18.42;;
22046;SDS011;11187;49.412;20.956;2023-02-28T13:13:20;19.67;;;17.67;;
22046;SDS011;11187;49.412;20.956;2023-02-28T13:16:16;23.00;;;20.83;;
22046;SDS011;11187;49.412;20.956;2023-02-28T13:19:10;24.58;;;18.65;;
22046;SDS011;11187;49.412;20.956;2023-02-28T13:21:45;26.50;;;15.77;;
22046;SDS011;11187;49.412;20.956;2023-02-28T13:27:12;21.27;;;17.27;;
22046;SDS011;11187;49.412;20.956;2023-02-28T13:33:28;20.75;;;18.67;;
22046;SDS011;11187;49.412;20.956;2023-02-28T13:36:31;18.45;;;16.55;;
22046;SDS011;11187;49.412;20.956;2023-02-28T13:45:36;20.38;;;17.25;;
22046;SDS011;11187;49.412;20.956;2023-02-28T13:48:32;23.90;;;18.55;;
22046;SDS011;11187;49.412;20.956;2023-02-28T13:54:56;18.55;;;14.93;;
22046;SDS011;11187;49.412;20.956;2023-02-28T14:06:54;21.52;;;19.23;;
22046;SDS011;11187;49.412;20.956;2023-02-28T14:09:37;24.00;;;18.77;;
22046;SDS011;11187;49.412;20.956;2023-02-28T14:21:32;21.02;;;18.40;;
22046;SDS011;11187;49.412;20.956;2023-02-28T14:30:07;23.98;;;18.08;;
22046;SDS011;11187;49.412;20.956;2023-02-28T14:36:26;24.73;;;17.40;;
22046;SDS011;11187;49.412;20.956;2023-02-28T14:39:10;24.83;;;19.08;;
22046;SDS011;11187;49.412;20.956;2023-02-28T14:42:00;21.67;;;17.42;;
22046;SDS011;11187;49.412;20.956;2023-02-28T14:44:38;20.25;;;16.55;;
22046;SDS011;11187;49.412;20.956;2023-02-28T14:47:31;20.70;;;16.75;;
22046;SDS011;11187;49.412;20.956;2023-02-28T14:50:30;19.15;;;16.42;;
22046;SDS011;11187;49.412;20.956;2023-02-28T14:53:10;20.67;;;16.27;;
22046;SDS011;11187;49.412;20.956;2023-02-28T14:56:17;22.55;;;17.38;;
22046;SDS011;11187;49.412;20.956;2023-02-28T14:58:55;20.20;;;15.75;;
22046;SDS011;11187;49.412;20.956;2023-02-28T15:01:49;23.48;;;16.48;;
22046;SDS011;11187;49.412;20.956;2023-02-28T15:04:44;26.48;;;16.27;;
22046;SDS011;11187;49.412;20.956;2023-02-28T15:07:26;24.35;;;14.10;;
22046;SDS011;11187;49.412;20.956;2023-02-28T15:10:18;25.63;;;16.17;;
22046;SDS011;11187;49.412;20.956;2023-02-28T15:13:00;26.17;;;17.20;;
22046;SDS011;11187;49.412;20.956;2023-02-28T15:15:59;22.30;;;16.45;;
22046;SDS011;11187;49.412;20.956;2023-02-28T15:21:41;23.75;;;18.27;;
22046;SDS011;11187;49.412;20.956;2023-02-28T15:27:38;23.90;;;17.63;;
22046;SDS011;11187;49.412;20.956;2023-02-28T15:30:37;23.77;;;19.50;;
22046;SDS011;11187;49.412;20.956;2023-02-28T15:36:04;23.90;;;17.85;;
22046;SDS011;11187;49.412;20.956;2023-02-28T15:38:50;27.88;;;17.20;;
22046;SDS011;11187;49.412;20.956;2023-02-28T15:42:10;31.00;;;16.08;;
22046;SDS011;11187;49.412;20.956;2023-02-28T15:44:45;25.20;;;18.80;;
22046;SDS011;11187;49.412;20.956;2023-02-28T15:47:39;26.98;;;18.35;;
22046;SDS011;11187;49.412;20.956;2023-02-28T15:50:48;22.73;;;18.55;;
22046;SDS011;11187;49.412;20.956;2023-02-28T15:53:37;26.95;;;18.52;;
22046;SDS011;11187;49.412;20.956;2023-02-28T15:56:33;23.17;;;18.38;;
22046;SDS011;11187;49.412;20.956;2023-02-28T15:59:14;24.23;;;19.17;;
22046;SDS011;11187;49.412;20.956;2023-02-28T16:02:15;24.00;;;17.23;;
22046;SDS011;11187;49.412;20.956;2023-02-28T16:07:45;25.40;;;17.17;;
22046;SDS011;11187;49.412;20.956;2023-02-28T16:10:31;24.92;;;17.33;;
22046;SDS011;11187;49.412;20.956;2023-02-28T16:13:05;19.27;;;15.32;;
22046;SDS011;11187;49.412;20.956;2023-02-28T16:15:53;26.48;;;18.92;;
22046;SDS011;11187;49.412;20.956;2023-02-28T16:18:27;23.88;;;17.25;;
22046;SDS011;11187;49.412;20.956;2023-02-28T16:21:20;23.75;;;16.75;;
22046;SDS011;11187;49.412;20.956;2023-02-28T16:24:14;21.38;;;17.52;;
22046;SDS011;11187;49.412;20.956;2023-02-28T16:26:48;23.40;;;17.38;;
22046;SDS011;11187;49.412;20.956;2023-02-28T16:29:38;26.70;;;19.27;;
22046;SDS011;11187;49.412;20.956;2023-02-28T16:32:12;27.17;;;20.35;;
22046;SDS011;11187;49.412;20.956;2023-02-28T16:35:02;26.13;;;18.92;;
22046;SDS011;11187;49.412;20.956;2023-02-28T16:37:56;22.73;;;17.67;;
22046;SDS011;11187;49.412;20.956;2023-02-28T16:40:50;32.03;;;19.13;;
22046;SDS011;11187;49.412;20.956;2023-02-28T16:43:25;25.60;;;17.42;;
22046;SDS011;11187;49.412;20.956;2023-02-28T16:46:12;25.88;;;19.10;;
22046;SDS011;11187;49.412;20.956;2023-02-28T16:48:46;29.20;;;18.60;;
22046;SDS011;11187;49.412;20.956;2023-02-28T16:51:34;25.60;;;16.33;;
22046;SDS011;11187;49.412;20.956;2023-02-28T16:54:08;26.23;;;15.88;;
22046;SDS011;11187;49.412;20.956;2023-02-28T16:56:54;28.42;;;19.02;;
22046;SDS011;11187;49.412;20.956;2023-02-28T16:59:28;30.45;;;18.50;;
22046;SDS011;11187;49.412;20.956;2023-02-28T17:02:16;27.60;;;18.23;;
22046;SDS011;11187;49.412;20.956;2023-02-28T17:04:52;24.27;;;19.88;;
22046;SDS011;11187;49.412;20.956;2023-02-28T17:07:46;24.48;;;17.23;;
22046;SDS011;11187;49.412;20.956;2023-02-28T17:10:39;31.17;;;18.42;;
22046;SDS011;11187;49.412;20.956;2023-02-28T17:13:13;27.25;;;18.70;;
22046;SDS011;11187;49.412;20.956;2023-02-28T17:16:09;24.73;;;17.90;;
22046;SDS011;11187;49.412;20.956;2023-02-28T17:19:14;32.88;;;19.40;;
22046;SDS011;11187;49.412;20.956;2023-02-28T17:21:49;31.50;;;20.08;;
22046;SDS011;11187;49.412;20.956;2023-02-28T17:25:11;33.55;;;19.88;;
22046;SDS011;11187;49.412;20.956;2023-02-28T17:27:45;29.42;;;18.85;;
22046;SDS011;11187;49.412;20.956;2023-02-28T17:30:33;30.30;;;19.33;;
22046;SDS011;11187;49.412;20.956;2023-02-28T17:33:07;34.20;;;19.65;;
22046;SDS011;11187;49.412;20.956;2023-02-28T17:35:53;28.65;;;18.95;;
22046;SDS011;11187;49.412;20.956;2023-02-28T17:38:27;30.77;;;20.20;;
22046;SDS011;11187;49.412;20.956;2023-02-28T17:41:20;29.98;;;19.88;;
22046;SDS011;11187;49.412;20.956;2023-02-28T17:44:16;31.73;;;19.65;;
22046;SDS011;11187;49.412;20.956;2023-02-28T17:47:11;34.65;;;19.02;;
22046;SDS011;11187;49.412;20.956;2023-02-28T17:49:46;35.70;;;20.40;;
22046;SDS011;11187;49.412;20.956;2023-02-28T17:52:39;37.67;;;21.08;;
22046;SDS011;11187;49.412;20.956;2023-02-28T17:55:33;38.08;;;24.05;;
22046;SDS011;11187;49.412;20.956;2023-02-28T17:58:09;39.42;;;23.80;;
22046;SDS011;11187;49.412;20.956;2023-02-28T18:00:58;39.00;;;23.15;;
22046;SDS011;11187;49.412;20.956;2023-02-28T18:03:32;39.25;;;23.33;;
22046;SDS011;11187;49.412;20.956;2023-02-28T18:06:19;37.33;;;21.92;;
22046;SDS011;11187;49.412;20.956;2023-02-28T18:09:00;39.28;;;22.38;;
22046;SDS011;11187;49.412;20.956;2023-02-28T18:11:54;40.33;;;22.80;;
22046;SDS011;11187;49.412;20.956;2023-02-28T18:14:48;38.80;;;20.65;;
22046;SDS011;11187;49.412;20.956;2023-02-28T18:17:43;43.22;;;21.08;;
22046;SDS011;11187;49.412;20.956;2023-02-28T18:20:37;39.85;;;22.17;;
22046;SDS011;11187;49.412;20.956;2023-02-28T18:23:32;35.95;;;20.42;;